createdAt,value
2018-07-26T00:00:57.561Z,2.63
2018-07-26T00:03:26.805Z,3.00
2018-07-26T00:05:56.056Z,2.67
2018-07-26T00:08:25.356Z,2.97
2018-07-26T00:10:54.565Z,3.20
2018-07-26T00:13:23.909Z,2.83
2018-07-26T00:15:53.139Z,2.80
2018-07-26T00:18:22.364Z,2.60
2018-07-26T00:20:51.627Z,3.23
2018-07-26T00:23:21.070Z,2.80
2018-07-26T00:25:50.392Z,3.10
2018-07-26T00:28:20.073Z,3.20
2018-07-26T00:30:49.378Z,2.50
2018-07-26T00:33:18.611Z,3.27
2018-07-26T00:35:47.876Z,3.40
2018-07-26T00:38:17.179Z,2.73
2018-07-26T00:40:46.554Z,3.10
2018-07-26T00:43:15.795Z,3.07
2018-07-26T00:45:45.546Z,3.23
2018-07-26T00:48:14.751Z,3.47
2018-07-26T00:50:44.100Z,3.23
2018-07-26T00:53:13.541Z,3.77
2018-07-26T00:55:42.848Z,3.40
2018-07-26T00:58:12.412Z,2.97
2018-07-26T01:00:41.966Z,3.97
2018-07-26T01:03:11.231Z,3.30
2018-07-26T01:05:40.455Z,3.00
2018-07-26T01:08:10.016Z,3.47
2018-07-26T01:10:39.300Z,3.20
2018-07-26T01:13:08.549Z,2.90
2018-07-26T01:15:37.842Z,3.13
2018-07-26T01:18:07.451Z,3.20
2018-07-26T01:20:37.039Z,3.00
2018-07-26T01:23:06.344Z,3.13
2018-07-26T01:25:35.630Z,3.10
2018-07-26T01:28:04.898Z,3.80
2018-07-26T01:30:34.163Z,3.00
2018-07-26T01:33:03.775Z,3.60
2018-07-26T01:35:33.517Z,3.47
2018-07-26T01:38:02.987Z,3.30
2018-07-26T01:40:32.239Z,3.80
2018-07-26T01:43:22.610Z,3.43
2018-07-26T01:45:51.618Z,3.67
2018-07-26T01:48:21.155Z,3.73
2018-07-26T01:50:50.470Z,3.80
2018-07-26T01:53:20.050Z,3.43
2018-07-26T01:55:49.857Z,4.17
2018-07-26T01:58:19.163Z,3.90
2018-07-26T02:00:48.424Z,4.10
2018-07-26T02:03:18.177Z,3.73
2018-07-26T02:05:48.099Z,4.43
2018-07-26T02:08:17.368Z,4.23
2018-07-26T02:10:46.646Z,4.00
2018-07-26T02:13:16.185Z,4.10
2018-07-26T02:15:45.447Z,4.20
2018-07-26T02:18:15.227Z,4.20
2018-07-26T02:20:44.819Z,4.33
2018-07-26T02:23:14.074Z,4.27
2018-07-26T02:25:43.136Z,4.30
2018-07-26T02:28:12.870Z,4.00
2018-07-26T02:30:42.116Z,4.43
2018-07-26T02:33:11.810Z,4.03
2018-07-26T02:35:41.363Z,5.10
2018-07-26T02:38:11.254Z,4.50
2018-07-26T02:40:40.494Z,5.40
2018-07-26T02:43:11.106Z,5.43
2018-07-26T02:45:40.767Z,4.80
2018-07-26T02:48:10.157Z,4.30
2018-07-26T02:50:40.043Z,4.23
2018-07-26T02:53:09.255Z,4.60
2018-07-26T02:55:39.652Z,4.57
2018-07-26T02:58:09.599Z,5.07
2018-07-26T03:00:38.871Z,4.97
2018-07-26T03:03:08.129Z,4.60
2018-07-26T03:05:37.388Z,4.70
2018-07-26T03:08:06.754Z,4.83
2018-07-26T03:10:36.315Z,4.93
2018-07-26T03:13:05.955Z,5.57
2018-07-26T03:15:35.199Z,5.10
2018-07-26T03:18:04.484Z,5.00
2018-07-26T03:20:34.096Z,5.03
2018-07-26T03:23:06.311Z,4.47
2018-07-26T03:25:35.608Z,5.57
2018-07-26T03:28:04.934Z,4.80
2018-07-26T03:30:34.637Z,5.03
2018-07-26T03:33:04.379Z,5.20
2018-07-26T03:35:33.645Z,5.27
2018-07-26T03:38:02.850Z,5.57
2018-07-26T03:40:32.139Z,5.27
2018-07-26T03:43:01.436Z,4.97
2018-07-26T03:45:30.735Z,4.50
2018-07-26T03:48:00.025Z,5.60
2018-07-26T03:50:29.289Z,5.87
2018-07-26T03:52:58.619Z,5.83
2018-07-26T03:55:28.154Z,5.77
2018-07-26T03:57:57.420Z,6.17
2018-07-26T04:00:26.738Z,5.43
2018-07-26T04:02:55.980Z,5.93
2018-07-26T04:05:25.291Z,5.27
2018-07-26T04:07:54.537Z,4.90
2018-07-26T04:10:23.808Z,5.20
2018-07-26T04:12:53.487Z,5.47
2018-07-26T04:15:22.704Z,5.90
2018-07-26T04:17:56.516Z,5.90
2018-07-26T04:20:26.486Z,5.53
2018-07-26T04:22:55.762Z,5.60
2018-07-26T04:25:25.046Z,5.00
2018-07-26T04:27:54.271Z,6.07
2018-07-26T04:30:23.716Z,5.57
2018-07-26T04:32:52.956Z,5.10
2018-07-26T04:35:22.569Z,5.70
2018-07-26T04:37:51.844Z,5.43
2018-07-26T04:40:20.858Z,5.10
2018-07-26T04:42:49.867Z,5.67
2018-07-26T04:45:19.150Z,5.70
2018-07-26T04:47:48.986Z,5.70
2018-07-26T04:50:18.268Z,5.07
2018-07-26T04:52:47.566Z,5.30
2018-07-26T04:55:17.062Z,5.40
2018-07-26T04:57:46.676Z,4.80
2018-07-26T05:00:15.931Z,4.67
2018-07-26T05:02:45.201Z,4.43
2018-07-26T05:05:14.482Z,4.93
2018-07-26T05:07:43.779Z,4.67
2018-07-26T05:10:13.611Z,4.23
2018-07-26T05:12:43.351Z,4.33
2018-07-26T05:15:12.941Z,4.10
2018-07-26T05:17:42.539Z,4.80
2018-07-26T05:20:11.789Z,5.20
2018-07-26T05:22:41.456Z,4.50
2018-07-26T05:25:10.698Z,4.40
2018-07-26T05:27:40.739Z,4.20
2018-07-26T05:30:10.747Z,4.70
2018-07-26T05:32:40.320Z,4.53
2018-07-26T05:35:09.580Z,4.40
2018-07-26T05:37:38.860Z,4.43
2018-07-26T05:40:08.423Z,4.27
2018-07-26T05:42:37.972Z,4.83
2018-07-26T05:45:07.705Z,3.37
2018-07-26T05:47:36.959Z,4.50
2018-07-26T05:50:06.912Z,4.50
2018-07-26T05:52:36.414Z,4.37
2018-07-26T05:55:06.503Z,4.00
2018-07-26T05:57:35.945Z,4.57
2018-07-26T06:00:09.215Z,3.70
2018-07-26T06:02:38.547Z,3.90
2018-07-26T06:05:08.444Z,3.97
2018-07-26T06:07:37.665Z,3.40
2018-07-26T06:10:08.170Z,4.10
2018-07-26T06:12:37.661Z,2.27
2018-07-26T06:15:10.338Z,2.57
2018-07-26T06:17:39.608Z,2.90
2018-07-26T06:20:11.074Z,2.53
2018-07-26T06:22:40.791Z,2.07
2018-07-26T06:25:10.556Z,2.03
2018-07-26T06:27:40.328Z,2.80
2018-07-26T06:30:12.107Z,1.60
2018-07-26T06:32:41.697Z,2.10
2018-07-26T06:35:11.290Z,1.50
2018-07-26T06:37:40.944Z,1.23
2018-07-26T06:40:10.182Z,1.30
2018-07-26T06:42:39.768Z,1.83
2018-07-26T06:45:09.694Z,2.07
2018-07-26T06:47:39.000Z,2.10
2018-07-26T06:50:10.367Z,2.70
2018-07-26T06:52:39.900Z,2.70
2018-07-26T06:55:09.375Z,3.00
2018-07-26T06:57:38.636Z,3.30
2018-07-26T07:00:09.756Z,3.37
2018-07-26T07:02:39.619Z,3.50
2018-07-26T07:05:09.875Z,3.07
2018-07-26T07:07:39.487Z,3.23
2018-07-26T07:10:08.767Z,4.10
2018-07-26T07:12:38.293Z,3.63
2018-07-26T07:15:07.529Z,3.33
2018-07-26T07:17:37.064Z,3.50
2018-07-26T07:20:07.247Z,3.87
2018-07-26T07:22:36.494Z,3.90
2018-07-26T07:25:06.490Z,3.40
2018-07-26T07:27:36.574Z,3.50
2018-07-26T07:30:09.065Z,3.80
2018-07-26T07:32:38.608Z,3.80
2018-07-26T07:35:08.228Z,3.97
2018-07-26T07:37:38.188Z,3.03
2018-07-26T07:40:09.066Z,3.37
2018-07-26T07:42:38.895Z,3.10
2018-07-26T07:45:08.924Z,2.97
2018-07-26T07:47:38.234Z,2.93
2018-07-26T07:50:07.841Z,3.07
2018-07-26T07:52:37.642Z,3.60
2018-07-26T07:55:07.371Z,2.70
2018-07-26T07:57:36.716Z,3.23
2018-07-26T08:00:07.730Z,3.20
2018-07-26T08:02:37.241Z,2.80
2018-07-26T08:05:07.167Z,2.70
2018-07-26T08:07:36.821Z,2.63
2018-07-26T08:10:08.543Z,2.43
2018-07-26T08:12:38.371Z,3.00
2018-07-26T08:15:08.984Z,2.53
2018-07-26T08:17:38.187Z,2.60
2018-07-26T08:20:09.150Z,2.57
2018-07-26T08:22:38.429Z,2.97
2018-07-26T08:25:08.767Z,2.60
2018-07-26T08:27:38.059Z,2.70
2018-07-26T08:30:10.112Z,2.90
2018-07-26T08:32:39.734Z,2.60
2018-07-26T08:35:09.087Z,2.63
2018-07-26T08:37:38.324Z,2.73
2018-07-26T08:40:07.719Z,2.47
2018-07-26T08:42:37.282Z,3.53
2018-07-26T08:45:06.894Z,2.90
2018-07-26T08:47:36.791Z,2.70
2018-07-26T08:50:07.141Z,2.53
2018-07-26T08:52:36.562Z,2.60
2018-07-26T08:55:05.855Z,3.00
2018-07-26T08:57:35.452Z,3.00
2018-07-26T09:00:05.158Z,2.23
2018-07-26T09:02:34.429Z,2.43
2018-07-26T09:05:04.244Z,2.10
2018-07-26T09:07:33.503Z,1.80
2018-07-26T09:10:02.780Z,1.40
2018-07-26T09:12:32.361Z,1.37
2018-07-26T09:15:02.026Z,1.10
2018-07-26T09:17:31.515Z,1.30
2018-07-26T09:20:01.253Z,1.27
2018-07-26T09:22:30.718Z,0.97
2018-07-26T09:25:00.387Z,1.00
2018-07-26T09:27:29.643Z,1.20
2018-07-26T09:29:59.298Z,1.03
2018-07-26T09:32:28.538Z,1.00
2018-07-26T09:35:13.190Z,0.70
2018-07-26T09:37:42.691Z,0.63
2018-07-26T09:40:11.972Z,0.90
2018-07-26T09:42:41.190Z,0.93
2018-07-26T09:45:10.410Z,0.87
2018-07-26T09:47:40.076Z,1.03
2018-07-26T09:50:09.323Z,1.10
2018-07-26T09:52:38.884Z,0.90
2018-07-26T09:55:08.475Z,0.90
2018-07-26T09:57:38.183Z,1.10
2018-07-26T10:00:08.193Z,0.93
2018-07-26T10:02:37.434Z,1.00
2018-07-26T10:05:07.181Z,0.90
2018-07-26T10:07:36.883Z,0.80
2018-07-26T10:10:06.419Z,1.30
2018-07-26T10:12:35.684Z,0.90
2018-07-26T10:15:05.806Z,0.80
2018-07-26T10:17:35.146Z,1.00
2018-07-26T10:20:04.480Z,0.90
2018-07-26T10:22:33.706Z,0.90
2018-07-26T10:25:03.000Z,1.10
2018-07-26T10:27:32.247Z,1.40
2018-07-26T10:30:02.049Z,1.20
2018-07-26T10:32:31.253Z,1.73
2018-07-26T10:35:00.503Z,2.03
2018-07-26T10:37:29.739Z,2.23
2018-07-26T10:39:59.156Z,2.10
2018-07-26T10:42:28.635Z,2.10
2018-07-26T10:44:57.910Z,1.70
2018-07-26T10:47:27.490Z,2.17
2018-07-26T10:49:57.146Z,2.33
2018-07-26T10:52:26.403Z,2.00
2018-07-26T10:54:55.694Z,2.50
2018-07-26T10:57:25.725Z,2.30
2018-07-26T10:59:55.375Z,2.00
2018-07-26T11:02:24.671Z,1.87
2018-07-26T11:04:53.957Z,2.17
2018-07-26T11:07:23.507Z,1.70
2018-07-26T11:09:52.730Z,2.17
2018-07-26T11:12:22.063Z,3.30
2018-07-26T11:14:51.933Z,2.20
2018-07-26T11:17:21.189Z,2.17
2018-07-26T11:19:50.916Z,2.30
2018-07-26T11:22:20.126Z,2.43
2018-07-26T11:24:55.483Z,1.90
2018-07-26T11:27:26.592Z,2.70
2018-07-26T11:29:55.908Z,1.90
2018-07-26T11:32:25.554Z,1.90
2018-07-26T11:34:54.799Z,1.80
2018-07-26T11:37:24.687Z,1.60
2018-07-26T11:39:53.983Z,1.93
2018-07-26T11:42:23.244Z,2.10
2018-07-26T11:44:52.504Z,2.13
2018-07-26T11:47:21.587Z,2.20
2018-07-26T11:49:51.688Z,1.80
2018-07-26T11:52:20.954Z,1.83
2018-07-26T11:54:51.262Z,2.40
2018-07-26T11:57:20.524Z,2.50
2018-07-26T11:59:49.807Z,2.40
2018-07-26T12:02:19.414Z,2.33
2018-07-26T12:04:48.988Z,2.20
2018-07-26T12:07:18.216Z,2.37
2018-07-26T12:09:47.505Z,2.50
2018-07-26T12:12:16.747Z,2.53
2018-07-26T12:14:46.348Z,2.60
2018-07-26T12:17:15.636Z,2.30
2018-07-26T12:19:45.395Z,2.33
2018-07-26T12:22:15.603Z,2.40
2018-07-26T12:24:45.176Z,2.47
2018-07-26T12:27:14.423Z,2.60
2018-07-26T12:29:43.642Z,2.40
2018-07-26T12:32:13.092Z,2.53
2018-07-26T12:34:42.391Z,2.33
2018-07-26T12:37:12.092Z,2.93
2018-07-26T12:39:41.348Z,2.50
2018-07-26T12:42:10.588Z,2.60
2018-07-26T12:44:40.042Z,2.63
2018-07-26T12:47:09.315Z,2.40
2018-07-26T12:49:38.921Z,2.30
2018-07-26T12:52:08.179Z,2.43
2018-07-26T12:54:38.205Z,2.53
2018-07-26T12:57:08.247Z,2.57
2018-07-26T12:59:37.841Z,2.57
2018-07-26T13:02:07.440Z,2.70
2018-07-26T13:04:37.103Z,2.90
2018-07-26T13:07:06.592Z,2.60
2018-07-26T13:09:36.834Z,2.33
2018-07-26T13:12:06.241Z,2.97
2018-07-26T13:14:35.515Z,2.30
2018-07-26T13:17:05.126Z,2.60
2018-07-26T13:19:34.931Z,2.20
2018-07-26T13:22:04.588Z,2.40
2018-07-26T13:24:33.847Z,2.47
2018-07-26T13:27:03.074Z,2.77
2018-07-26T13:29:32.270Z,2.73
2018-07-26T13:32:02.193Z,2.73
2018-07-26T13:34:31.851Z,2.90
2018-07-26T13:37:01.135Z,2.63
2018-07-26T13:39:31.606Z,2.80
2018-07-26T13:42:00.846Z,3.10
2018-07-26T13:44:30.454Z,2.70
2018-07-26T13:47:00.057Z,2.70
2018-07-26T13:49:29.363Z,3.00
2018-07-26T13:51:58.676Z,3.10
2018-07-26T13:54:28.332Z,3.00
2018-07-26T13:56:57.577Z,3.20
2018-07-26T13:59:26.844Z,2.60
2018-07-26T14:01:56.237Z,3.00
2018-07-26T14:04:25.965Z,2.80
2018-07-26T14:06:55.599Z,2.50
2018-07-26T14:09:25.298Z,2.63
2018-07-26T14:11:54.803Z,3.23
2018-07-26T14:14:24.387Z,2.67
2018-07-26T14:16:53.656Z,2.30
2018-07-26T14:19:23.215Z,2.80
2018-07-26T14:21:52.443Z,2.50
2018-07-26T14:24:22.083Z,3.03
2018-07-26T14:26:52.028Z,3.73
2018-07-26T14:29:21.958Z,2.53
2018-07-26T14:31:51.272Z,2.97
2018-07-26T14:34:20.937Z,3.03
2018-07-26T14:36:50.523Z,3.30
2018-07-26T14:39:19.785Z,2.90
2018-07-26T14:41:49.051Z,2.60
2018-07-26T14:44:18.389Z,2.40
2018-07-26T14:46:47.868Z,2.80
2018-07-26T14:49:17.715Z,2.47
2018-07-26T14:51:47.372Z,2.60
2018-07-26T14:54:16.676Z,2.70
2018-07-26T14:56:45.972Z,3.17
2018-07-26T14:59:15.228Z,3.13
2018-07-26T15:01:44.999Z,2.73
2018-07-26T15:04:14.810Z,2.50
2018-07-26T15:06:44.480Z,2.73
2018-07-26T15:09:13.802Z,2.80
2018-07-26T15:11:43.549Z,2.90
2018-07-26T15:14:13.096Z,3.33
2018-07-26T15:16:42.367Z,3.00
2018-07-26T15:19:12.112Z,2.90
2018-07-26T15:21:41.436Z,2.50
2018-07-26T15:24:11.649Z,2.50
2018-07-26T15:26:40.909Z,2.67
2018-07-26T15:29:10.170Z,2.83
2018-07-26T15:31:39.551Z,2.67
2018-07-26T15:34:08.816Z,2.90
2018-07-26T15:36:38.436Z,2.57
2018-07-26T15:39:09.951Z,2.87
2018-07-26T15:41:45.868Z,3.40
2018-07-26T15:44:16.302Z,3.00
2018-07-26T15:46:45.970Z,2.87
2018-07-26T15:49:15.254Z,3.33
2018-07-26T15:51:44.489Z,2.70
2018-07-26T15:54:13.722Z,3.10
2018-07-26T15:56:42.975Z,2.57
2018-07-26T15:59:13.055Z,3.27
2018-07-26T16:01:42.915Z,2.83
2018-07-26T16:04:12.202Z,3.10
2018-07-26T16:06:41.784Z,3.03
2018-07-26T16:09:12.075Z,2.83
2018-07-26T16:11:41.959Z,2.97
2018-07-26T16:14:11.900Z,3.80
2018-07-26T16:16:41.795Z,3.50
2018-07-26T16:19:11.491Z,3.60
2018-07-26T16:21:41.034Z,3.53
2018-07-26T16:24:10.366Z,3.27
2018-07-26T16:26:39.656Z,2.57
2018-07-26T16:29:08.920Z,2.70
2018-07-26T16:31:38.212Z,3.20
2018-07-26T16:34:07.455Z,3.10
2018-07-26T16:36:36.765Z,2.60
2018-07-26T16:39:09.780Z,2.90
2018-07-26T16:41:39.521Z,3.10
2018-07-26T16:44:09.153Z,3.00
2018-07-26T16:46:38.517Z,3.40
2018-07-26T16:49:08.832Z,3.10
2018-07-26T16:51:38.198Z,2.90
2018-07-26T16:54:07.472Z,2.70
2018-07-26T16:56:36.818Z,3.00
2018-07-26T16:59:06.206Z,2.63
2018-07-26T17:01:35.454Z,3.20
2018-07-26T17:04:05.184Z,2.83
2018-07-26T17:06:35.224Z,3.17
2018-07-26T17:09:06.600Z,3.60
2018-07-26T17:11:36.053Z,2.97
2018-07-26T17:14:05.632Z,3.30
2018-07-26T17:16:34.995Z,2.80
2018-07-26T17:19:04.286Z,2.80
2018-07-26T17:21:33.942Z,3.47
2018-07-26T17:24:03.178Z,3.63
2018-07-26T17:26:32.846Z,3.07
2018-07-26T17:29:02.184Z,3.27
2018-07-26T17:31:31.822Z,4.03
2018-07-26T17:34:01.507Z,2.90
2018-07-26T17:36:31.098Z,3.20
2018-07-26T17:39:00.719Z,2.67
2018-07-26T17:41:29.955Z,2.73
2018-07-26T17:43:59.285Z,3.20
2018-07-26T17:46:28.574Z,2.77
2018-07-26T17:48:57.865Z,3.10
2018-07-26T17:51:27.444Z,3.20
2018-07-26T17:53:57.298Z,3.40
2018-07-26T17:56:26.546Z,3.30
2018-07-26T17:58:56.127Z,3.13
2018-07-26T18:01:25.412Z,3.40
2018-07-26T18:03:54.671Z,3.60
2018-07-26T18:06:24.112Z,3.20
2018-07-26T18:08:53.315Z,3.13
2018-07-26T18:11:22.514Z,2.90
2018-07-26T18:13:51.837Z,3.17
2018-07-26T18:16:21.034Z,3.57
2018-07-26T18:18:50.645Z,3.67
2018-07-26T18:21:20.422Z,3.23
2018-07-26T18:23:49.731Z,3.30
2018-07-26T18:26:19.049Z,3.77
2018-07-26T18:28:48.186Z,3.20
2018-07-26T18:31:17.768Z,3.70
2018-07-26T18:33:47.436Z,3.50
2018-07-26T18:36:16.746Z,3.60
2018-07-26T18:38:45.986Z,3.07
2018-07-26T18:41:15.986Z,2.90
2018-07-26T18:43:45.243Z,3.50
2018-07-26T18:46:14.510Z,3.80
2018-07-26T18:48:43.808Z,3.43
2018-07-26T18:51:13.068Z,3.30
2018-07-26T18:53:42.331Z,3.47
2018-07-26T18:56:11.595Z,3.20
2018-07-26T18:58:40.909Z,3.30
2018-07-26T19:01:10.475Z,3.53
2018-07-26T19:03:39.727Z,3.57
2018-07-26T19:06:09.420Z,3.40
2018-07-26T19:08:38.759Z,4.20
2018-07-26T19:11:07.973Z,4.37
2018-07-26T19:13:37.211Z,3.40
2018-07-26T19:16:08.041Z,3.77
2018-07-26T19:18:37.298Z,4.17
2018-07-26T19:21:06.786Z,3.77
2018-07-26T19:23:36.400Z,3.43
2018-07-26T19:26:06.281Z,4.00
2018-07-26T19:28:35.583Z,4.90
2018-07-26T19:31:05.394Z,3.53
2018-07-26T19:33:34.677Z,3.53
2018-07-26T19:36:03.932Z,4.43
2018-07-26T19:38:33.244Z,3.70
2018-07-26T19:41:02.496Z,4.10
2018-07-26T19:43:31.986Z,3.87
2018-07-26T19:46:01.303Z,3.77
2018-07-26T19:48:30.764Z,4.30
2018-07-26T19:51:00.424Z,4.90
2018-07-26T19:53:30.090Z,3.80
2018-07-26T19:55:59.790Z,4.13
2018-07-26T19:58:29.100Z,4.67
2018-07-26T20:00:58.377Z,4.57
2018-07-26T20:03:27.760Z,5.13
2018-07-26T20:05:57.044Z,4.43
2018-07-26T20:08:26.351Z,4.73
2018-07-26T20:10:55.943Z,5.27
2018-07-26T20:13:25.491Z,5.60
2018-07-26T20:15:54.701Z,5.27
2018-07-26T20:18:24.348Z,6.07
2018-07-26T20:20:53.911Z,5.53
2018-07-26T20:23:23.170Z,5.37
2018-07-26T20:25:52.738Z,4.90
2018-07-26T20:28:22.628Z,5.50
2018-07-26T20:30:52.539Z,5.73
2018-07-26T20:33:21.766Z,4.67
2018-07-26T20:35:54.879Z,4.60
2018-07-26T20:38:24.175Z,4.60
2018-07-26T20:40:53.724Z,4.43
2018-07-26T20:43:22.999Z,4.90
2018-07-26T20:45:52.013Z,5.33
2018-07-26T20:48:21.353Z,5.17
2018-07-26T20:50:50.706Z,5.30
2018-07-26T20:53:19.947Z,4.77
2018-07-26T20:55:49.558Z,4.50
2018-07-26T20:58:19.068Z,5.60
2018-07-26T21:00:48.340Z,4.57
2018-07-26T21:03:17.567Z,5.10
2018-07-26T21:05:46.830Z,4.97
2018-07-26T21:08:16.066Z,5.10
2018-07-26T21:10:45.865Z,5.77
2018-07-26T21:13:15.106Z,7.80
2018-07-26T21:15:44.381Z,6.27
2018-07-26T21:18:14.028Z,6.57
2018-07-26T21:20:43.186Z,5.57
2018-07-26T21:23:12.635Z,6.00
2018-07-26T21:25:41.882Z,5.60
2018-07-26T21:28:11.151Z,5.83
2018-07-26T21:30:40.396Z,5.00
2018-07-26T21:33:09.634Z,6.20
2018-07-26T21:35:38.865Z,5.70
2018-07-26T21:38:09.196Z,5.17
2018-07-26T21:40:38.471Z,5.90
2018-07-26T21:43:08.143Z,5.40
2018-07-26T21:45:37.730Z,6.77
2018-07-26T21:48:07.106Z,5.57
2018-07-26T21:50:36.425Z,6.10
2018-07-26T21:53:06.069Z,5.60
2018-07-26T21:55:35.314Z,5.57
2018-07-26T21:58:04.623Z,6.93
2018-07-26T22:00:42.007Z,6.17
2018-07-26T22:03:11.895Z,6.10
2018-07-26T22:05:41.612Z,4.90
2018-07-26T22:08:10.883Z,5.47
2018-07-26T22:10:40.437Z,5.77
2018-07-26T22:13:10.046Z,4.87
2018-07-26T22:15:39.296Z,5.80
2018-07-26T22:18:08.562Z,5.83
2018-07-26T22:20:37.924Z,5.23
2018-07-26T22:23:07.643Z,5.07
2018-07-26T22:25:36.873Z,5.27
2018-07-26T22:28:06.455Z,5.10
2018-07-26T22:30:36.085Z,5.40
2018-07-26T22:33:05.694Z,5.43
2018-07-26T22:35:34.964Z,5.20
2018-07-26T22:38:04.234Z,4.80
2018-07-26T22:40:33.491Z,5.60
2018-07-26T22:43:02.756Z,5.90
2018-07-26T22:45:32.037Z,4.87
2018-07-26T22:48:01.336Z,5.20
2018-07-26T22:50:30.589Z,4.50
2018-07-26T22:52:59.867Z,4.50
2018-07-26T22:55:29.291Z,4.80
2018-07-26T22:57:58.726Z,5.60
2018-07-26T23:00:28.565Z,5.43
2018-07-26T23:02:57.828Z,5.30
2018-07-26T23:05:27.182Z,4.67
2018-07-26T23:07:56.476Z,5.70
2018-07-26T23:10:25.728Z,4.97
2018-07-26T23:12:54.996Z,4.60
2018-07-26T23:15:24.274Z,5.50
2018-07-26T23:17:53.620Z,5.00
2018-07-26T23:20:22.983Z,5.07
2018-07-26T23:22:54.108Z,4.60
2018-07-26T23:25:23.372Z,5.90
2018-07-26T23:27:52.641Z,5.20
2018-07-26T23:30:21.919Z,5.83
2018-07-26T23:32:51.650Z,4.73
2018-07-26T23:35:20.887Z,5.23
2018-07-26T23:37:50.550Z,4.80
2018-07-26T23:40:19.799Z,4.80
2018-07-26T23:42:49.077Z,5.00
2018-07-26T23:45:19.005Z,4.73
2018-07-26T23:47:48.206Z,5.13
2018-07-26T23:50:17.773Z,4.83
2018-07-26T23:52:47.423Z,4.53
2018-07-26T23:55:16.690Z,5.10
2018-07-26T23:57:46.367Z,5.40
